sensor_id;sensor_type;location;lat;lon;timestamp;P1;durP1;ratioP1;P2;durP2;ratioP2
61338;SDS011;47213;52.362;4.606;2023-07-30T00:02:22;20.40;;;4.20;;
61338;SDS011;47213;52.362;4.606;2023-07-30T00:07:22;20.40;;;4.20;;
61338;SDS011;47213;52.362;4.606;2023-07-30T00:12:22;22.30;;;4.60;;
61338;SDS011;47213;52.362;4.606;2023-07-30T00:32:22;20.40;;;4.30;;
61338;SDS011;47213;52.362;4.606;2023-07-30T00:52:23;21.70;;;3.80;;
61338;SDS011;47213;52.362;4.606;2023-07-30T01:02:22;20.60;;;4.00;;
61338;SDS011;47213;52.362;4.606;2023-07-30T01:07:22;20.60;;;4.00;;
61338;SDS011;47213;52.362;4.606;2023-07-30T01:12:22;22.00;;;4.40;;
61338;SDS011;47213;52.362;4.606;2023-07-30T01:22:22;19.30;;;4.10;;
61338;SDS011;47213;52.362;4.606;2023-07-30T01:27:24;19.30;;;4.10;;
61338;SDS011;47213;52.362;4.606;2023-07-30T01:32:25;21.20;;;4.40;;
61338;SDS011;47213;52.362;4.606;2023-07-30T01:37:23;21.20;;;4.40;;
61338;SDS011;47213;52.362;4.606;2023-07-30T01:47:22;20.60;;;4.40;;
61338;SDS011;47213;52.362;4.606;2023-07-30T01:52:23;18.30;;;3.80;;
61338;SDS011;47213;52.362;4.606;2023-07-30T01:57:22;18.30;;;3.80;;
61338;SDS011;47213;52.362;4.606;2023-07-30T02:07:22;20.20;;;4.30;;
61338;SDS011;47213;52.362;4.606;2023-07-30T02:12:22;21.30;;;4.30;;
61338;SDS011;47213;52.362;4.606;2023-07-30T02:17:22;21.30;;;4.30;;
61338;SDS011;47213;52.362;4.606;2023-07-30T02:22:22;21.50;;;4.00;;
61338;SDS011;47213;52.362;4.606;2023-07-30T02:27:22;21.50;;;4.00;;
61338;SDS011;47213;52.362;4.606;2023-07-30T02:32:22;19.70;;;3.70;;
61338;SDS011;47213;52.362;4.606;2023-07-30T02:37:22;19.70;;;3.70;;
61338;SDS011;47213;52.362;4.606;2023-07-30T02:42:22;16.90;;;3.10;;
61338;SDS011;47213;52.362;4.606;2023-07-30T02:52:22;11.30;;;2.20;;
61338;SDS011;47213;52.362;4.606;2023-07-30T02:57:22;11.30;;;2.20;;
61338;SDS011;47213;52.362;4.606;2023-07-30T03:02:22;7.20;;;1.60;;
61338;SDS011;47213;52.362;4.606;2023-07-30T03:07:22;7.20;;;1.60;;
61338;SDS011;47213;52.362;4.606;2023-07-30T03:12:22;10.60;;;1.90;;
61338;SDS011;47213;52.362;4.606;2023-07-30T03:17:22;10.60;;;1.90;;
61338;SDS011;47213;52.362;4.606;2023-07-30T03:22:22;10.50;;;2.10;;
61338;SDS011;47213;52.362;4.606;2023-07-30T03:27:22;10.50;;;2.10;;
61338;SDS011;47213;52.362;4.606;2023-07-30T03:32:22;7.80;;;1.70;;
61338;SDS011;47213;52.362;4.606;2023-07-30T03:42:22;9.20;;;1.80;;
61338;SDS011;47213;52.362;4.606;2023-07-30T03:47:22;9.20;;;1.80;;
61338;SDS011;47213;52.362;4.606;2023-07-30T04:02:22;12.90;;;2.30;;
61338;SDS011;47213;52.362;4.606;2023-07-30T04:12:22;11.20;;;2.10;;
61338;SDS011;47213;52.362;4.606;2023-07-30T04:17:22;11.20;;;2.10;;
61338;SDS011;47213;52.362;4.606;2023-07-30T04:22:23;10.50;;;2.30;;
61338;SDS011;47213;52.362;4.606;2023-07-30T04:42:23;9.70;;;2.20;;
61338;SDS011;47213;52.362;4.606;2023-07-30T04:47:23;9.70;;;2.20;;
61338;SDS011;47213;52.362;4.606;2023-07-30T04:57:23;11.70;;;2.30;;
61338;SDS011;47213;52.362;4.606;2023-07-30T05:02:23;12.40;;;2.30;;
61338;SDS011;47213;52.362;4.606;2023-07-30T05:12:23;14.30;;;2.70;;
61338;SDS011;47213;52.362;4.606;2023-07-30T05:17:23;14.30;;;2.70;;
61338;SDS011;47213;52.362;4.606;2023-07-30T05:22:23;15.00;;;2.60;;
61338;SDS011;47213;52.362;4.606;2023-07-30T05:27:23;15.00;;;2.60;;
61338;SDS011;47213;52.362;4.606;2023-07-30T05:32:23;9.10;;;1.80;;
61338;SDS011;47213;52.362;4.606;2023-07-30T05:52:23;9.50;;;1.80;;
61338;SDS011;47213;52.362;4.606;2023-07-30T05:57:23;9.50;;;1.80;;
61338;SDS011;47213;52.362;4.606;2023-07-30T06:07:23;12.50;;;2.00;;
61338;SDS011;47213;52.362;4.606;2023-07-30T06:12:23;10.90;;;2.10;;
61338;SDS011;47213;52.362;4.606;2023-07-30T06:22:23;11.50;;;2.50;;
61338;SDS011;47213;52.362;4.606;2023-07-30T06:27:23;11.50;;;2.50;;
61338;SDS011;47213;52.362;4.606;2023-07-30T06:32:23;11.70;;;2.00;;
61338;SDS011;47213;52.362;4.606;2023-07-30T06:42:23;10.80;;;2.30;;
61338;SDS011;47213;52.362;4.606;2023-07-30T06:47:23;10.80;;;2.30;;
61338;SDS011;47213;52.362;4.606;2023-07-30T06:52:23;11.40;;;2.30;;
61338;SDS011;47213;52.362;4.606;2023-07-30T06:57:23;11.40;;;2.30;;
61338;SDS011;47213;52.362;4.606;2023-07-30T07:12:23;13.40;;;2.50;;
61338;SDS011;47213;52.362;4.606;2023-07-30T07:17:24;13.40;;;2.50;;
61338;SDS011;47213;52.362;4.606;2023-07-30T07:22:23;10.90;;;2.30;;
61338;SDS011;47213;52.362;4.606;2023-07-30T07:27:23;10.90;;;2.30;;
61338;SDS011;47213;52.362;4.606;2023-07-30T07:32:23;10.10;;;2.30;;
61338;SDS011;47213;52.362;4.606;2023-07-30T07:37:23;10.10;;;2.30;;
61338;SDS011;47213;52.362;4.606;2023-07-30T07:42:24;13.20;;;2.50;;
61338;SDS011;47213;52.362;4.606;2023-07-30T07:47:23;13.20;;;2.50;;
61338;SDS011;47213;52.362;4.606;2023-07-30T07:52:23;12.00;;;2.40;;
61338;SDS011;47213;52.362;4.606;2023-07-30T08:02:23;12.40;;;2.50;;
61338;SDS011;47213;52.362;4.606;2023-07-30T08:17:23;11.40;;;2.40;;
61338;SDS011;47213;52.362;4.606;2023-07-30T08:27:23;13.40;;;2.60;;
61338;SDS011;47213;52.362;4.606;2023-07-30T08:32:23;11.20;;;2.30;;
61338;SDS011;47213;52.362;4.606;2023-07-30T08:37:23;11.20;;;2.30;;
61338;SDS011;47213;52.362;4.606;2023-07-30T08:57:24;11.20;;;2.40;;
61338;SDS011;47213;52.362;4.606;2023-07-30T09:02:29;12.30;;;2.30;;
61338;SDS011;47213;52.362;4.606;2023-07-30T09:12:31;11.30;;;2.10;;
61338;SDS011;47213;52.362;4.606;2023-07-30T09:17:23;11.30;;;2.10;;
61338;SDS011;47213;52.362;4.606;2023-07-30T09:22:25;10.70;;;2.20;;
61338;SDS011;47213;52.362;4.606;2023-07-30T09:27:25;10.70;;;2.20;;
61338;SDS011;47213;52.362;4.606;2023-07-30T09:32:26;12.20;;;2.10;;
61338;SDS011;47213;52.362;4.606;2023-07-30T09:37:23;12.20;;;2.10;;
61338;SDS011;47213;52.362;4.606;2023-07-30T09:42:26;9.60;;;2.00;;
61338;SDS011;47213;52.362;4.606;2023-07-30T09:47:26;9.60;;;2.00;;
61338;SDS011;47213;52.362;4.606;2023-07-30T09:52:23;9.30;;;2.10;;
61338;SDS011;47213;52.362;4.606;2023-07-30T09:57:23;9.30;;;2.10;;
61338;SDS011;47213;52.362;4.606;2023-07-30T10:02:24;10.60;;;2.30;;
61338;SDS011;47213;52.362;4.606;2023-07-30T10:07:24;10.60;;;2.30;;
61338;SDS011;47213;52.362;4.606;2023-07-30T10:12:28;12.60;;;2.40;;
61338;SDS011;47213;52.362;4.606;2023-07-30T10:17:23;12.60;;;2.40;;
61338;SDS011;47213;52.362;4.606;2023-07-30T10:22:24;11.30;;;2.20;;
61338;SDS011;47213;52.362;4.606;2023-07-30T10:27:25;11.30;;;2.20;;
61338;SDS011;47213;52.362;4.606;2023-07-30T10:32:37;13.70;;;2.40;;
61338;SDS011;47213;52.362;4.606;2023-07-30T10:37:24;13.70;;;2.40;;
61338;SDS011;47213;52.362;4.606;2023-07-30T10:42:24;9.40;;;1.90;;
61338;SDS011;47213;52.362;4.606;2023-07-30T10:47:27;9.40;;;1.90;;
61338;SDS011;47213;52.362;4.606;2023-07-30T10:52:24;9.90;;;2.10;;
61338;SDS011;47213;52.362;4.606;2023-07-30T10:57:24;9.90;;;2.10;;
61338;SDS011;47213;52.362;4.606;2023-07-30T11:02:24;10.40;;;1.80;;
61338;SDS011;47213;52.362;4.606;2023-07-30T11:07:24;10.40;;;1.80;;
61338;SDS011;47213;52.362;4.606;2023-07-30T11:12:24;9.50;;;1.90;;
61338;SDS011;47213;52.362;4.606;2023-07-30T11:17:24;9.50;;;1.90;;
61338;SDS011;47213;52.362;4.606;2023-07-30T11:22:32;7.80;;;2.00;;
61338;SDS011;47213;52.362;4.606;2023-07-30T11:27:24;7.80;;;2.00;;
61338;SDS011;47213;52.362;4.606;2023-07-30T11:32:24;8.60;;;1.60;;
61338;SDS011;47213;52.362;4.606;2023-07-30T11:37:24;8.60;;;1.60;;
61338;SDS011;47213;52.362;4.606;2023-07-30T11:42:24;10.40;;;1.70;;
61338;SDS011;47213;52.362;4.606;2023-07-30T11:47:24;10.40;;;1.70;;
61338;SDS011;47213;52.362;4.606;2023-07-30T11:52:24;11.70;;;1.90;;
61338;SDS011;47213;52.362;4.606;2023-07-30T11:57:33;11.70;;;1.90;;
61338;SDS011;47213;52.362;4.606;2023-07-30T12:02:24;9.90;;;1.80;;
61338;SDS011;47213;52.362;4.606;2023-07-30T12:07:24;9.90;;;1.80;;
61338;SDS011;47213;52.362;4.606;2023-07-30T12:12:25;10.00;;;1.70;;
61338;SDS011;47213;52.362;4.606;2023-07-30T12:17:24;10.00;;;1.70;;
61338;SDS011;47213;52.362;4.606;2023-07-30T12:22:24;12.30;;;2.00;;
61338;SDS011;47213;52.362;4.606;2023-07-30T12:27:24;12.30;;;2.00;;
61338;SDS011;47213;52.362;4.606;2023-07-30T12:32:24;10.20;;;2.20;;
61338;SDS011;47213;52.362;4.606;2023-07-30T12:37:24;10.20;;;2.20;;
61338;SDS011;47213;52.362;4.606;2023-07-30T12:47:24;11.20;;;2.10;;
61338;SDS011;47213;52.362;4.606;2023-07-30T12:52:24;10.60;;;2.10;;
61338;SDS011;47213;52.362;4.606;2023-07-30T12:57:24;10.60;;;2.10;;
61338;SDS011;47213;52.362;4.606;2023-07-30T13:02:24;9.30;;;1.80;;
61338;SDS011;47213;52.362;4.606;2023-07-30T13:07:24;9.30;;;1.80;;
61338;SDS011;47213;52.362;4.606;2023-07-30T13:12:24;8.10;;;1.60;;
61338;SDS011;47213;52.362;4.606;2023-07-30T13:17:24;8.10;;;1.60;;
61338;SDS011;47213;52.362;4.606;2023-07-30T13:22:25;8.00;;;1.50;;
61338;SDS011;47213;52.362;4.606;2023-07-30T13:27:24;8.00;;;1.50;;
61338;SDS011;47213;52.362;4.606;2023-07-30T13:32:24;12.80;;;2.10;;
61338;SDS011;47213;52.362;4.606;2023-07-30T13:37:24;12.80;;;2.10;;
61338;SDS011;47213;52.362;4.606;2023-07-30T13:42:24;10.50;;;2.00;;
61338;SDS011;47213;52.362;4.606;2023-07-30T13:47:24;10.50;;;2.00;;
61338;SDS011;47213;52.362;4.606;2023-07-30T13:52:24;13.50;;;2.30;;
61338;SDS011;47213;52.362;4.606;2023-07-30T14:02:24;12.30;;;2.60;;
61338;SDS011;47213;52.362;4.606;2023-07-30T14:07:24;12.30;;;2.60;;
61338;SDS011;47213;52.362;4.606;2023-07-30T14:12:24;13.80;;;2.70;;
61338;SDS011;47213;52.362;4.606;2023-07-30T14:17:24;13.80;;;2.70;;
61338;SDS011;47213;52.362;4.606;2023-07-30T14:22:24;14.60;;;3.00;;
61338;SDS011;47213;52.362;4.606;2023-07-30T14:27:24;14.60;;;3.00;;
61338;SDS011;47213;52.362;4.606;2023-07-30T14:32:24;17.40;;;3.60;;
61338;SDS011;47213;52.362;4.606;2023-07-30T14:37:24;17.40;;;3.60;;
61338;SDS011;47213;52.362;4.606;2023-07-30T14:42:24;19.20;;;3.50;;
61338;SDS011;47213;52.362;4.606;2023-07-30T14:47:24;19.20;;;3.50;;
61338;SDS011;47213;52.362;4.606;2023-07-30T14:52:24;18.60;;;3.80;;
61338;SDS011;47213;52.362;4.606;2023-07-30T14:57:24;18.60;;;3.80;;
61338;SDS011;47213;52.362;4.606;2023-07-30T15:02:24;19.40;;;4.50;;
61338;SDS011;47213;52.362;4.606;2023-07-30T15:12:24;20.90;;;4.20;;
61338;SDS011;47213;52.362;4.606;2023-07-30T15:22:24;20.40;;;4.30;;
61338;SDS011;47213;52.362;4.606;2023-07-30T15:27:24;20.40;;;4.30;;
61338;SDS011;47213;52.362;4.606;2023-07-30T15:32:25;24.40;;;4.70;;
61338;SDS011;47213;52.362;4.606;2023-07-30T15:37:24;24.40;;;4.70;;
61338;SDS011;47213;52.362;4.606;2023-07-30T15:42:24;22.40;;;4.80;;
61338;SDS011;47213;52.362;4.606;2023-07-30T15:47:24;22.40;;;4.80;;
61338;SDS011;47213;52.362;4.606;2023-07-30T15:52:24;20.30;;;4.50;;
61338;SDS011;47213;52.362;4.606;2023-07-30T16:02:24;24.30;;;5.00;;
61338;SDS011;47213;52.362;4.606;2023-07-30T16:07:24;24.30;;;5.00;;
61338;SDS011;47213;52.362;4.606;2023-07-30T16:17:25;24.20;;;5.80;;
61338;SDS011;47213;52.362;4.606;2023-07-30T16:22:24;19.60;;;4.20;;
61338;SDS011;47213;52.362;4.606;2023-07-30T16:32:24;15.40;;;3.10;;
61338;SDS011;47213;52.362;4.606;2023-07-30T16:37:25;15.40;;;3.10;;
61338;SDS011;47213;52.362;4.606;2023-07-30T16:42:25;11.90;;;2.40;;
61338;SDS011;47213;52.362;4.606;2023-07-30T16:47:24;11.90;;;2.40;;
61338;SDS011;47213;52.362;4.606;2023-07-30T16:57:25;13.50;;;3.00;;
61338;SDS011;47213;52.362;4.606;2023-07-30T17:12:25;12.10;;;2.70;;
61338;SDS011;47213;52.362;4.606;2023-07-30T17:22:25;12.30;;;2.50;;
61338;SDS011;47213;52.362;4.606;2023-07-30T17:27:25;12.30;;;2.50;;
61338;SDS011;47213;52.362;4.606;2023-07-30T17:32:25;12.20;;;2.50;;
61338;SDS011;47213;52.362;4.606;2023-07-30T17:37:25;12.20;;;2.50;;
61338;SDS011;47213;52.362;4.606;2023-07-30T17:42:25;7.90;;;2.00;;
61338;SDS011;47213;52.362;4.606;2023-07-30T17:47:25;7.90;;;2.00;;
61338;SDS011;47213;52.362;4.606;2023-07-30T18:02:25;8.70;;;1.80;;
61338;SDS011;47213;52.362;4.606;2023-07-30T18:07:25;8.70;;;1.80;;
61338;SDS011;47213;52.362;4.606;2023-07-30T18:12:25;10.30;;;2.30;;
61338;SDS011;47213;52.362;4.606;2023-07-30T18:24:01;unavailable;;;unavailable;;
61338;SDS011;47213;52.362;4.606;2023-07-30T18:29:16;10.10;;;2.70;;
61338;SDS011;47213;52.362;4.606;2023-07-30T18:37:25;10.90;;;2.70;;
61338;SDS011;47213;52.362;4.606;2023-07-30T18:42:25;11.30;;;2.50;;
61338;SDS011;47213;52.362;4.606;2023-07-30T18:52:25;13.00;;;2.60;;
61338;SDS011;47213;52.362;4.606;2023-07-30T18:57:25;13.00;;;2.60;;
61338;SDS011;47213;52.362;4.606;2023-07-30T19:02:25;11.30;;;2.60;;
61338;SDS011;47213;52.362;4.606;2023-07-30T19:12:25;12.40;;;3.10;;
61338;SDS011;47213;52.362;4.606;2023-07-30T19:27:25;12.30;;;2.20;;
61338;SDS011;47213;52.362;4.606;2023-07-30T19:52:25;9.80;;;2.50;;
61338;SDS011;47213;52.362;4.606;2023-07-30T20:02:25;11.60;;;2.70;;
61338;SDS011;47213;52.362;4.606;2023-07-30T20:07:25;11.60;;;2.70;;
61338;SDS011;47213;52.362;4.606;2023-07-30T20:12:25;14.10;;;2.70;;
61338;SDS011;47213;52.362;4.606;2023-07-30T20:27:25;11.40;;;2.20;;
61338;SDS011;47213;52.362;4.606;2023-07-30T20:32:25;13.70;;;2.50;;
61338;SDS011;47213;52.362;4.606;2023-07-30T20:37:25;13.70;;;2.50;;
61338;SDS011;47213;52.362;4.606;2023-07-30T20:42:25;11.10;;;2.30;;
61338;SDS011;47213;52.362;4.606;2023-07-30T20:47:25;11.10;;;2.30;;
61338;SDS011;47213;52.362;4.606;2023-07-30T20:57:25;10.50;;;2.20;;
61338;SDS011;47213;52.362;4.606;2023-07-30T21:02:25;10.50;;;2.20;;
61338;SDS011;47213;52.362;4.606;2023-07-30T21:12:26;8.30;;;2.10;;
61338;SDS011;47213;52.362;4.606;2023-07-30T21:17:25;9.90;;;1.90;;
61338;SDS011;47213;52.362;4.606;2023-07-30T21:37:25;8.40;;;1.90;;
61338;SDS011;47213;52.362;4.606;2023-07-30T21:42:26;8.40;;;1.90;;
61338;SDS011;47213;52.362;4.606;2023-07-30T21:47:25;8.40;;;1.90;;
61338;SDS011;47213;52.362;4.606;2023-07-30T21:57:25;8.20;;;2.00;;
61338;SDS011;47213;52.362;4.606;2023-07-30T22:07:25;5.80;;;1.60;;
61338;SDS011;47213;52.362;4.606;2023-07-30T22:12:25;5.80;;;1.60;;
61338;SDS011;47213;52.362;4.606;2023-07-30T22:17:25;7.30;;;1.90;;
61338;SDS011;47213;52.362;4.606;2023-07-30T22:22:26;7.30;;;1.90;;
61338;SDS011;47213;52.362;4.606;2023-07-30T22:27:25;5.70;;;1.50;;
61338;SDS011;47213;52.362;4.606;2023-07-30T22:32:25;5.70;;;1.50;;
61338;SDS011;47213;52.362;4.606;2023-07-30T22:37:25;5.70;;;1.60;;
61338;SDS011;47213;52.362;4.606;2023-07-30T22:42:25;5.70;;;1.60;;
61338;SDS011;47213;52.362;4.606;2023-07-30T22:47:25;5.70;;;1.80;;
61338;SDS011;47213;52.362;4.606;2023-07-30T22:52:25;5.70;;;1.80;;
61338;SDS011;47213;52.362;4.606;2023-07-30T22:57:26;7.80;;;2.30;;
61338;SDS011;47213;52.362;4.606;2023-07-30T23:02:25;7.80;;;2.30;;
61338;SDS011;47213;52.362;4.606;2023-07-30T23:07:26;15.30;;;3.70;;
61338;SDS011;47213;52.362;4.606;2023-07-30T23:22:26;19.40;;;4.20;;
61338;SDS011;47213;52.362;4.606;2023-07-30T23:27:26;20.40;;;3.70;;
61338;SDS011;47213;52.362;4.606;2023-07-30T23:32:26;20.40;;;3.70;;
61338;SDS011;47213;52.362;4.606;2023-07-30T23:37:26;17.90;;;4.10;;
61338;SDS011;47213;52.362;4.606;2023-07-30T23:42:26;17.90;;;4.10;;
